sensor_id;sensor_type;location;lat;lon;timestamp;pressure;altitude;pressure_sealevel;temperature;humidity
18985;BME280;9626;52.552;13.436;2024-01-25T00:00:20;100915.03;;;8.66;100.00
18985;BME280;9626;52.552;13.436;2024-01-25T00:02:46;100905.44;;;8.54;100.00
18985;BME280;9626;52.552;13.436;2024-01-25T00:05:12;100909.81;;;8.57;100.00
18985;BME280;9626;52.552;13.436;2024-01-25T00:07:50;100922.06;;;8.64;100.00
18985;BME280;9626;52.552;13.436;2024-01-25T00:10:17;100922.16;;;8.56;100.00
18985;BME280;9626;52.552;13.436;2024-01-25T00:12:43;100916.03;;;8.50;100.00
18985;BME280;9626;52.552;13.436;2024-01-25T00:15:10;100907.25;;;8.44;100.00
18985;BME280;9626;52.552;13.436;2024-01-25T00:17:36;100920.44;;;8.48;100.00
18985;BME280;9626;52.552;13.436;2024-01-25T00:20:03;100925.75;;;8.41;100.00
18985;BME280;9626;52.552;13.436;2024-01-25T00:22:30;100944.22;;;8.38;100.00
18985;BME280;9626;52.552;13.436;2024-01-25T00:24:56;100933.63;;;8.44;100.00
18985;BME280;9626;52.552;13.436;2024-01-25T00:27:22;100937.16;;;8.46;100.00
18985;BME280;9626;52.552;13.436;2024-01-25T00:29:48;100936.31;;;8.38;100.00
18985;BME280;9626;52.552;13.436;2024-01-25T00:32:14;100942.44;;;8.50;100.00
18985;BME280;9626;52.552;13.436;2024-01-25T00:34:40;100950.28;;;8.56;100.00
18985;BME280;9626;52.552;13.436;2024-01-25T00:37:07;100956.53;;;8.45;100.00
18985;BME280;9626;52.552;13.436;2024-01-25T00:39:33;100958.28;;;8.45;100.00
18985;BME280;9626;52.552;13.436;2024-01-25T00:42:03;100965.34;;;8.41;100.00
18985;BME280;9626;52.552;13.436;2024-01-25T00:44:31;100984.66;;;8.46;100.00
18985;BME280;9626;52.552;13.436;2024-01-25T00:46:57;100964.44;;;8.49;100.00
18985;BME280;9626;52.552;13.436;2024-01-25T00:49:24;100989.06;;;8.38;100.00
18985;BME280;9626;52.552;13.436;2024-01-25T00:51:55;100978.53;;;8.37;100.00
18985;BME280;9626;52.552;13.436;2024-01-25T00:54:24;100980.28;;;8.39;100.00
18985;BME280;9626;52.552;13.436;2024-01-25T00:56:50;100968.84;;;8.40;100.00
18985;BME280;9626;52.552;13.436;2024-01-25T00:59:19;100981.16;;;8.41;100.00
18985;BME280;9626;52.552;13.436;2024-01-25T01:01:47;100987.31;;;8.40;100.00
18985;BME280;9626;52.552;13.436;2024-01-25T01:04:14;100987.28;;;8.43;100.00
18985;BME280;9626;52.552;13.436;2024-01-25T01:06:41;100985.56;;;8.39;100.00
18985;BME280;9626;52.552;13.436;2024-01-25T01:09:07;100981.16;;;8.46;100.00
18985;BME280;9626;52.552;13.436;2024-01-25T01:11:33;100987.31;;;8.42;100.00
18985;BME280;9626;52.552;13.436;2024-01-25T01:13:59;100973.25;;;8.38;100.00
18985;BME280;9626;52.552;13.436;2024-01-25T01:16:26;100975.00;;;8.39;100.00
18985;BME280;9626;52.552;13.436;2024-01-25T01:18:53;101004.94;;;8.35;100.00
18985;BME280;9626;52.552;13.436;2024-01-25T01:21:19;100982.97;;;8.33;100.00
18985;BME280;9626;52.552;13.436;2024-01-25T01:23:46;100982.94;;;8.38;100.00
18985;BME280;9626;52.552;13.436;2024-01-25T01:26:12;100984.66;;;8.43;100.00
18985;BME280;9626;52.552;13.436;2024-01-25T01:28:38;100959.16;;;8.42;100.00
18985;BME280;9626;52.552;13.436;2024-01-25T01:31:04;100977.69;;;8.33;100.00
18985;BME280;9626;52.552;13.436;2024-01-25T01:33:30;100980.31;;;8.35;100.00
18985;BME280;9626;52.552;13.436;2024-01-25T01:35:56;100983.81;;;8.35;100.00
18985;BME280;9626;52.552;13.436;2024-01-25T01:38:23;100967.13;;;8.35;100.00
18985;BME280;9626;52.552;13.436;2024-01-25T01:40:49;100976.78;;;8.33;100.00
18985;BME280;9626;52.552;13.436;2024-01-25T01:43:19;100980.31;;;8.30;100.00
18985;BME280;9626;52.552;13.436;2024-01-25T01:45:45;100982.09;;;8.31;100.00
18985;BME280;9626;52.552;13.436;2024-01-25T01:48:12;100982.09;;;8.29;100.00
18985;BME280;9626;52.552;13.436;2024-01-25T01:50:38;100983.00;;;8.25;100.00
18985;BME280;9626;52.552;13.436;2024-01-25T01:53:04;100987.41;;;8.23;100.00
18985;BME280;9626;52.552;13.436;2024-01-25T01:55:31;100989.16;;;8.29;100.00
18985;BME280;9626;52.552;13.436;2024-01-25T01:57:58;100995.38;;;8.14;100.00
18985;BME280;9626;52.552;13.436;2024-01-25T02:00:25;100996.22;;;8.21;100.00
18985;BME280;9626;52.552;13.436;2024-01-25T02:02:51;100990.97;;;8.21;100.00
18985;BME280;9626;52.552;13.436;2024-01-25T02:05:17;100995.34;;;8.20;100.00
18985;BME280;9626;52.552;13.436;2024-01-25T02:07:44;101002.28;;;8.35;100.00
18985;BME280;9626;52.552;13.436;2024-01-25T02:10:11;101026.06;;;8.32;100.00
18985;BME280;9626;52.552;13.436;2024-01-25T02:12:38;101017.31;;;8.24;100.00
18985;BME280;9626;52.552;13.436;2024-01-25T02:15:04;101007.63;;;8.26;100.00
18985;BME280;9626;52.552;13.436;2024-01-25T02:17:30;101018.16;;;8.26;100.00
18985;BME280;9626;52.552;13.436;2024-01-25T02:19:56;101019.91;;;8.28;100.00
18985;BME280;9626;52.552;13.436;2024-01-25T02:22:22;101006.78;;;8.15;100.00
18985;BME280;9626;52.552;13.436;2024-01-25T02:24:48;101033.16;;;8.18;100.00
18985;BME280;9626;52.552;13.436;2024-01-25T02:27:14;101022.63;;;8.16;100.00
18985;BME280;9626;52.552;13.436;2024-01-25T02:29:40;101035.78;;;8.24;100.00
18985;BME280;9626;52.552;13.436;2024-01-25T02:32:06;101034.09;;;8.07;100.00
18985;BME280;9626;52.552;13.436;2024-01-25T02:34:32;101022.66;;;8.04;100.00
18985;BME280;9626;52.552;13.436;2024-01-25T02:36:58;101034.06;;;8.13;100.00
18985;BME280;9626;52.552;13.436;2024-01-25T02:39:24;101032.28;;;8.11;100.00
18985;BME280;9626;52.552;13.436;2024-01-25T02:41:50;101034.94;;;8.12;100.00
18985;BME280;9626;52.552;13.436;2024-01-25T02:44:16;101024.44;;;8.03;100.00
18985;BME280;9626;52.552;13.436;2024-01-25T02:46:42;101028.81;;;8.04;100.00
18985;BME280;9626;52.552;13.436;2024-01-25T02:49:10;101023.53;;;8.04;100.00
18985;BME280;9626;52.552;13.436;2024-01-25T02:51:36;101020.06;;;7.94;100.00
18985;BME280;9626;52.552;13.436;2024-01-25T02:54:02;101021.75;;;8.11;100.00
18985;BME280;9626;52.552;13.436;2024-01-25T02:56:28;101026.19;;;8.03;100.00
18985;BME280;9626;52.552;13.436;2024-01-25T02:59:03;101033.19;;;8.11;100.00
18985;BME280;9626;52.552;13.436;2024-01-25T03:01:40;101029.69;;;8.00;100.00
18985;BME280;9626;52.552;13.436;2024-01-25T03:04:06;101021.78;;;8.00;100.00
18985;BME280;9626;52.552;13.436;2024-01-25T03:06:32;101023.56;;;8.00;100.00
18985;BME280;9626;52.552;13.436;2024-01-25T03:08:58;101009.50;;;7.96;100.00
18985;BME280;9626;52.552;13.436;2024-01-25T03:11:24;101018.31;;;7.97;100.00
18985;BME280;9626;52.552;13.436;2024-01-25T03:13:50;101027.06;;;8.06;100.00
18985;BME280;9626;52.552;13.436;2024-01-25T03:16:16;101029.75;;;7.94;100.00
18985;BME280;9626;52.552;13.436;2024-01-25T03:18:42;101026.22;;;7.98;100.00
18985;BME280;9626;52.552;13.436;2024-01-25T03:21:09;101018.31;;;7.93;100.00
18985;BME280;9626;52.552;13.436;2024-01-25T03:23:34;101026.22;;;7.98;100.00
18985;BME280;9626;52.552;13.436;2024-01-25T03:26:02;101030.63;;;7.98;100.00
18985;BME280;9626;52.552;13.436;2024-01-25T03:28:28;101029.69;;;8.14;100.00
18985;BME280;9626;52.552;13.436;2024-01-25T03:30:54;101041.97;;;8.13;100.00
18985;BME280;9626;52.552;13.436;2024-01-25T03:33:20;101052.56;;;8.03;100.00
18985;BME280;9626;52.552;13.436;2024-01-25T03:35:46;101044.66;;;7.98;100.00
18985;BME280;9626;52.552;13.436;2024-01-25T03:38:12;101041.16;;;7.98;100.00
18985;BME280;9626;52.552;13.436;2024-01-25T03:40:40;101027.09;;;7.95;100.00
18985;BME280;9626;52.552;13.436;2024-01-25T03:43:05;101034.13;;;7.95;100.00
18985;BME280;9626;52.552;13.436;2024-01-25T03:45:31;101036.78;;;7.90;100.00
18985;BME280;9626;52.552;13.436;2024-01-25T03:47:58;101039.41;;;7.97;100.00
18985;BME280;9626;52.552;13.436;2024-01-25T03:50:24;101039.41;;;7.98;100.00
18985;BME280;9626;52.552;13.436;2024-01-25T03:52:50;101040.25;;;8.06;100.00
18985;BME280;9626;52.552;13.436;2024-01-25T03:55:16;101042.91;;;7.97;100.00
18985;BME280;9626;52.552;13.436;2024-01-25T03:57:44;101049.06;;;7.99;100.00
18985;BME280;9626;52.552;13.436;2024-01-25T04:00:10;101049.97;;;7.89;100.00
18985;BME280;9626;52.552;13.436;2024-01-25T04:02:40;101056.16;;;7.82;100.00
18985;BME280;9626;52.552;13.436;2024-01-25T04:05:06;101043.81;;;7.91;100.00
18985;BME280;9626;52.552;13.436;2024-01-25T04:07:32;101059.59;;;8.02;100.00
18985;BME280;9626;52.552;13.436;2024-01-25T04:09:58;101065.78;;;7.97;100.00
18985;BME280;9626;52.552;13.436;2024-01-25T04:12:24;101075.41;;;8.05;100.00
18985;BME280;9626;52.552;13.436;2024-01-25T04:14:50;101062.25;;;7.96;100.00
18985;BME280;9626;52.552;13.436;2024-01-25T04:17:16;101072.81;;;7.91;100.00
18985;BME280;9626;52.552;13.436;2024-01-25T04:19:42;101093.91;;;7.90;100.00
18985;BME280;9626;52.552;13.436;2024-01-25T04:22:08;101085.97;;;7.94;100.00
18985;BME280;9626;52.552;13.436;2024-01-25T04:24:35;101086.88;;;7.90;100.00
18985;BME280;9626;52.552;13.436;2024-01-25T04:27:01;101077.22;;;7.91;100.00
18985;BME280;9626;52.552;13.436;2024-01-25T04:29:27;101094.81;;;7.83;100.00
18985;BME280;9626;52.552;13.436;2024-01-25T04:31:53;101093.91;;;7.85;100.00
18985;BME280;9626;52.552;13.436;2024-01-25T04:34:19;101084.28;;;7.83;100.00
18985;BME280;9626;52.552;13.436;2024-01-25T04:36:45;101095.69;;;7.83;100.00
18985;BME280;9626;52.552;13.436;2024-01-25T04:39:11;101067.56;;;7.82;100.00
18985;BME280;9626;52.552;13.436;2024-01-25T04:41:37;101098.31;;;7.85;100.00
18985;BME280;9626;52.552;13.436;2024-01-25T04:44:03;101104.44;;;7.85;100.00
18985;BME280;9626;52.552;13.436;2024-01-25T04:46:30;101117.66;;;7.81;100.00
18985;BME280;9626;52.552;13.436;2024-01-25T04:49:01;101114.16;;;7.80;100.00
18985;BME280;9626;52.552;13.436;2024-01-25T04:51:27;101114.13;;;7.91;100.00
18985;BME280;9626;52.552;13.436;2024-01-25T04:53:53;101119.41;;;7.94;100.00
18985;BME280;9626;52.552;13.436;2024-01-25T04:56:19;101134.34;;;7.93;100.00
18985;BME280;9626;52.552;13.436;2024-01-25T04:58:45;101131.72;;;7.83;100.00
18985;BME280;9626;52.552;13.436;2024-01-25T05:01:12;101131.72;;;7.83;100.00
18985;BME280;9626;52.552;13.436;2024-01-25T05:03:38;101128.22;;;7.74;100.00
18985;BME280;9626;52.552;13.436;2024-01-25T05:06:04;101136.13;;;7.77;100.00
18985;BME280;9626;52.552;13.436;2024-01-25T05:08:30;101133.44;;;7.93;100.00
18985;BME280;9626;52.552;13.436;2024-01-25T05:10:56;101144.00;;;7.96;100.00
18985;BME280;9626;52.552;13.436;2024-01-25T05:13:22;101135.19;;;7.97;100.00
18985;BME280;9626;52.552;13.436;2024-01-25T05:15:48;101134.34;;;7.90;100.00
18985;BME280;9626;52.552;13.436;2024-01-25T05:18:14;101144.03;;;7.87;100.00
18985;BME280;9626;52.552;13.436;2024-01-25T05:20:40;101152.78;;;7.92;100.00
18985;BME280;9626;52.552;13.436;2024-01-25T05:23:06;101158.06;;;7.87;100.00
18985;BME280;9626;52.552;13.436;2024-01-25T05:25:32;101163.34;;;7.89;100.00
18985;BME280;9626;52.552;13.436;2024-01-25T05:27:59;101182.69;;;7.91;100.00
18985;BME280;9626;52.552;13.436;2024-01-25T05:30:25;101178.28;;;7.82;100.00
18985;BME280;9626;52.552;13.436;2024-01-25T05:32:51;101174.78;;;7.82;100.00
18985;BME280;9626;52.552;13.436;2024-01-25T05:35:19;101162.47;;;7.84;100.00
18985;BME280;9626;52.552;13.436;2024-01-25T05:37:45;101202.00;;;7.84;100.00
18985;BME280;9626;52.552;13.436;2024-01-25T05:40:12;101187.97;;;7.85;100.00
18985;BME280;9626;52.552;13.436;2024-01-25T05:42:39;101195.84;;;7.88;100.00
18985;BME280;9626;52.552;13.436;2024-01-25T05:45:08;101205.56;;;7.83;100.00
18985;BME280;9626;52.552;13.436;2024-01-25T05:47:38;101194.09;;;7.84;100.00
18985;BME280;9626;52.552;13.436;2024-01-25T05:50:04;101197.59;;;7.92;100.00
18985;BME280;9626;52.552;13.436;2024-01-25T05:52:30;101194.97;;;7.90;100.00
18985;BME280;9626;52.552;13.436;2024-01-25T05:54:56;101194.13;;;7.74;100.00
18985;BME280;9626;52.552;13.436;2024-01-25T05:57:22;101196.75;;;7.81;100.00
18985;BME280;9626;52.552;13.436;2024-01-25T05:59:48;101199.41;;;7.87;100.00
18985;BME280;9626;52.552;13.436;2024-01-25T06:02:14;101209.94;;;7.79;100.00
18985;BME280;9626;52.552;13.436;2024-01-25T06:04:41;101208.19;;;7.84;100.00
18985;BME280;9626;52.552;13.436;2024-01-25T06:07:07;101229.28;;;7.83;100.00
18985;BME280;9626;52.552;13.436;2024-01-25T06:09:33;101221.38;;;7.84;100.00
18985;BME280;9626;52.552;13.436;2024-01-25T06:11:59;101218.72;;;7.86;100.00
18985;BME280;9626;52.552;13.436;2024-01-25T06:14:25;101238.06;;;7.83;100.00
18985;BME280;9626;52.552;13.436;2024-01-25T06:16:51;101225.75;;;7.84;100.00
18985;BME280;9626;52.552;13.436;2024-01-25T06:19:17;101221.34;;;7.89;100.00
18985;BME280;9626;52.552;13.436;2024-01-25T06:21:44;101221.34;;;7.89;100.00
18985;BME280;9626;52.552;13.436;2024-01-25T06:24:10;101230.16;;;7.94;100.00
18985;BME280;9626;52.552;13.436;2024-01-25T06:26:36;101235.44;;;7.91;100.00
18985;BME280;9626;52.552;13.436;2024-01-25T06:29:02;101221.38;;;7.83;100.00
18985;BME280;9626;52.552;13.436;2024-01-25T06:31:28;101222.25;;;7.83;100.00
18985;BME280;9626;52.552;13.436;2024-01-25T06:33:54;101240.69;;;7.83;100.00
18985;BME280;9626;52.552;13.436;2024-01-25T06:36:20;101240.69;;;7.82;100.00
18985;BME280;9626;52.552;13.436;2024-01-25T06:38:46;101234.53;;;7.86;100.00
18985;BME280;9626;52.552;13.436;2024-01-25T06:41:12;101250.38;;;7.86;100.00
18985;BME280;9626;52.552;13.436;2024-01-25T06:43:39;101257.41;;;7.87;100.00
18985;BME280;9626;52.552;13.436;2024-01-25T06:46:06;101262.66;;;7.90;100.00
18985;BME280;9626;52.552;13.436;2024-01-25T06:48:34;101274.09;;;7.83;100.00
18985;BME280;9626;52.552;13.436;2024-01-25T06:51:00;101268.84;;;7.83;100.00
18985;BME280;9626;52.552;13.436;2024-01-25T06:53:28;101279.38;;;7.83;100.00
18985;BME280;9626;52.552;13.436;2024-01-25T06:55:55;101273.22;;;7.87;100.00
18985;BME280;9626;52.552;13.436;2024-01-25T06:58:21;101285.53;;;7.82;100.00
18985;BME280;9626;52.552;13.436;2024-01-25T07:00:47;101284.66;;;7.83;100.00
18985;BME280;9626;52.552;13.436;2024-01-25T07:03:14;101295.19;;;7.86;100.00
18985;BME280;9626;52.552;13.436;2024-01-25T07:05:40;101316.31;;;7.95;100.00
18985;BME280;9626;52.552;13.436;2024-01-25T07:08:07;101316.28;;;7.89;100.00
18985;BME280;9626;52.552;13.436;2024-01-25T07:10:39;101333.88;;;7.87;100.00
18985;BME280;9626;52.552;13.436;2024-01-25T07:13:05;101339.16;;;7.87;100.00
18985;BME280;9626;52.552;13.436;2024-01-25T07:15:31;101330.34;;;7.88;100.00
18985;BME280;9626;52.552;13.436;2024-01-25T07:17:57;101333.88;;;7.87;100.00
18985;BME280;9626;52.552;13.436;2024-01-25T07:20:23;101330.34;;;7.78;100.00
18985;BME280;9626;52.552;13.436;2024-01-25T07:22:49;101336.47;;;7.81;100.00
18985;BME280;9626;52.552;13.436;2024-01-25T07:25:15;101340.88;;;7.82;100.00
18985;BME280;9626;52.552;13.436;2024-01-25T07:27:47;101329.44;;;7.78;100.00
18985;BME280;9626;52.552;13.436;2024-01-25T07:30:15;101340.88;;;7.88;100.00
18985;BME280;9626;52.552;13.436;2024-01-25T07:32:41;101352.31;;;7.93;100.00
18985;BME280;9626;52.552;13.436;2024-01-25T07:35:11;101347.06;;;7.91;100.00
18985;BME280;9626;52.552;13.436;2024-01-25T07:37:39;101362.84;;;7.82;100.00
18985;BME280;9626;52.552;13.436;2024-01-25T07:40:07;101361.09;;;7.79;100.00
18985;BME280;9626;52.552;13.436;2024-01-25T07:42:33;101358.44;;;7.76;100.00
18985;BME280;9626;52.552;13.436;2024-01-25T07:44:59;101365.47;;;7.84;100.00
18985;BME280;9626;52.552;13.436;2024-01-25T07:47:26;101361.97;;;7.85;100.00
18985;BME280;9626;52.552;13.436;2024-01-25T07:49:52;101361.09;;;7.75;100.00
18985;BME280;9626;52.552;13.436;2024-01-25T07:52:19;101358.44;;;7.70;100.00
18985;BME280;9626;52.552;13.436;2024-01-25T07:54:47;101369.00;;;7.70;100.00
18985;BME280;9626;52.552;13.436;2024-01-25T07:57:13;101368.13;;;7.81;100.00
18985;BME280;9626;52.552;13.436;2024-01-25T07:59:39;101371.66;;;7.84;100.00
18985;BME280;9626;52.552;13.436;2024-01-25T08:02:04;101385.69;;;7.77;100.00
18985;BME280;9626;52.552;13.436;2024-01-25T08:04:30;101379.53;;;7.73;100.00
18985;BME280;9626;52.552;13.436;2024-01-25T08:06:56;101384.78;;;7.67;100.00
18985;BME280;9626;52.552;13.436;2024-01-25T08:09:24;101382.13;;;7.59;100.00
18985;BME280;9626;52.552;13.436;2024-01-25T08:11:50;101387.41;;;7.61;100.00
18985;BME280;9626;52.552;13.436;2024-01-25T08:14:17;101391.84;;;7.74;100.00
18985;BME280;9626;52.552;13.436;2024-01-25T08:16:43;101393.63;;;7.82;100.00
18985;BME280;9626;52.552;13.436;2024-01-25T08:19:09;101398.03;;;7.87;100.00
18985;BME280;9626;52.552;13.436;2024-01-25T08:21:35;101410.34;;;7.93;100.00
18985;BME280;9626;52.552;13.436;2024-01-25T08:24:02;101413.81;;;7.79;100.00
18985;BME280;9626;52.552;13.436;2024-01-25T08:26:28;101408.53;;;7.73;100.00
18985;BME280;9626;52.552;13.436;2024-01-25T08:28:54;101427.03;;;7.83;100.00
18985;BME280;9626;52.552;13.436;2024-01-25T08:31:20;101432.31;;;7.83;100.00
18985;BME280;9626;52.552;13.436;2024-01-25T08:33:46;101442.84;;;7.92;100.00
18985;BME280;9626;52.552;13.436;2024-01-25T08:36:16;101434.06;;;7.90;100.00
18985;BME280;9626;52.552;13.436;2024-01-25T08:38:42;101449.91;;;7.87;100.00
18985;BME280;9626;52.552;13.436;2024-01-25T08:41:08;101452.53;;;7.90;100.00
18985;BME280;9626;52.552;13.436;2024-01-25T08:43:37;101449.03;;;7.91;100.00
18985;BME280;9626;52.552;13.436;2024-01-25T08:46:06;101441.16;;;8.02;100.00
18985;BME280;9626;52.552;13.436;2024-01-25T08:48:32;101440.22;;;7.84;100.00
18985;BME280;9626;52.552;13.436;2024-01-25T08:50:58;101449.91;;;7.93;100.00
18985;BME280;9626;52.552;13.436;2024-01-25T08:53:24;101440.22;;;7.89;100.00
18985;BME280;9626;52.552;13.436;2024-01-25T08:55:53;101445.53;;;7.93;100.00
18985;BME280;9626;52.552;13.436;2024-01-25T08:58:20;101449.91;;;7.90;100.00
18985;BME280;9626;52.552;13.436;2024-01-25T09:00:46;101471.91;;;7.93;100.00
18985;BME280;9626;52.552;13.436;2024-01-25T09:03:12;101463.03;;;7.85;100.00
18985;BME280;9626;52.552;13.436;2024-01-25T09:05:38;101488.56;;;7.86;100.00
18985;BME280;9626;52.552;13.436;2024-01-25T09:08:13;101475.31;;;7.77;100.00
18985;BME280;9626;52.552;13.436;2024-01-25T09:10:41;101487.72;;;7.93;100.00
18985;BME280;9626;52.552;13.436;2024-01-25T09:13:08;101478.84;;;7.81;100.00
18985;BME280;9626;52.552;13.436;2024-01-25T09:15:34;101485.03;;;7.83;100.00
18985;BME280;9626;52.552;13.436;2024-01-25T09:18:00;101499.09;;;7.89;100.00
18985;BME280;9626;52.552;13.436;2024-01-25T09:20:26;101490.34;;;7.95;100.00
18985;BME280;9626;52.552;13.436;2024-01-25T09:22:52;101504.41;;;7.91;100.00
18985;BME280;9626;52.552;13.436;2024-01-25T09:25:22;101512.28;;;7.88;100.00
18985;BME280;9626;52.552;13.436;2024-01-25T09:27:49;101506.13;;;7.86;100.00
18985;BME280;9626;52.552;13.436;2024-01-25T09:30:15;101513.19;;;7.87;100.00
18985;BME280;9626;52.552;13.436;2024-01-25T09:32:41;101519.31;;;7.90;100.00
18985;BME280;9626;52.552;13.436;2024-01-25T09:35:07;101514.09;;;7.97;100.00
18985;BME280;9626;52.552;13.436;2024-01-25T09:37:33;101529.88;;;7.84;100.00
18985;BME280;9626;52.552;13.436;2024-01-25T09:39:59;101529.81;;;7.75;100.00
18985;BME280;9626;52.552;13.436;2024-01-25T09:42:26;101526.31;;;7.84;100.00
18985;BME280;9626;52.552;13.436;2024-01-25T09:44:54;101529.00;;;7.87;100.00
18985;BME280;9626;52.552;13.436;2024-01-25T09:47:20;101540.38;;;7.81;100.00
18985;BME280;9626;52.552;13.436;2024-01-25T09:49:47;101536.88;;;7.85;100.00
18985;BME280;9626;52.552;13.436;2024-01-25T09:52:13;101521.94;;;7.83;100.00
18985;BME280;9626;52.552;13.436;2024-01-25T09:54:40;101543.03;;;7.83;100.00
18985;BME280;9626;52.552;13.436;2024-01-25T09:57:12;101535.09;;;7.79;100.00
18985;BME280;9626;52.552;13.436;2024-01-25T09:59:40;101548.38;;;7.95;100.00
18985;BME280;9626;52.552;13.436;2024-01-25T10:02:07;101544.88;;;8.02;100.00
18985;BME280;9626;52.552;13.436;2024-01-25T10:04:34;101564.16;;;7.92;100.00
18985;BME280;9626;52.552;13.436;2024-01-25T10:07:00;101565.94;;;7.93;100.00
18985;BME280;9626;52.552;13.436;2024-01-25T10:09:26;101559.75;;;7.88;100.00
18985;BME280;9626;52.552;13.436;2024-01-25T10:11:53;101558.88;;;7.87;100.00
18985;BME280;9626;52.552;13.436;2024-01-25T10:14:19;101559.81;;;7.99;100.00
18985;BME280;9626;52.552;13.436;2024-01-25T10:16:45;101558.94;;;7.95;100.00
18985;BME280;9626;52.552;13.436;2024-01-25T10:19:12;101570.34;;;7.94;100.00
18985;BME280;9626;52.552;13.436;2024-01-25T10:21:38;101559.78;;;7.94;100.00
18985;BME280;9626;52.552;13.436;2024-01-25T10:24:06;101572.13;;;7.93;100.00
18985;BME280;9626;52.552;13.436;2024-01-25T10:26:34;101565.97;;;7.99;100.00
18985;BME280;9626;52.552;13.436;2024-01-25T10:29:01;101559.81;;;7.99;100.00
18985;BME280;9626;52.552;13.436;2024-01-25T10:31:27;101574.78;;;8.04;100.00
18985;BME280;9626;52.552;13.436;2024-01-25T10:33:55;101574.75;;;7.97;100.00
18985;BME280;9626;52.552;13.436;2024-01-25T10:36:22;101570.41;;;8.03;100.00
18985;BME280;9626;52.552;13.436;2024-01-25T10:38:49;101580.13;;;8.18;100.00
18985;BME280;9626;52.552;13.436;2024-01-25T10:41:16;101571.31;;;8.13;100.00
18985;BME280;9626;52.552;13.436;2024-01-25T10:43:44;101582.75;;;8.13;100.00
18985;BME280;9626;52.552;13.436;2024-01-25T10:46:10;101581.88;;;8.11;100.00
18985;BME280;9626;52.552;13.436;2024-01-25T10:48:37;101587.09;;;8.08;100.00
18985;BME280;9626;52.552;13.436;2024-01-25T10:51:04;101586.28;;;8.17;100.00
18985;BME280;9626;52.552;13.436;2024-01-25T10:53:34;101586.34;;;8.31;100.00
18985;BME280;9626;52.552;13.436;2024-01-25T10:56:02;101586.38;;;8.36;100.00
18985;BME280;9626;52.552;13.436;2024-01-25T10:58:31;101583.69;;;8.34;100.00
18985;BME280;9626;52.552;13.436;2024-01-25T11:01:08;101584.56;;;8.22;100.00
18985;BME280;9626;52.552;13.436;2024-01-25T11:03:36;101583.69;;;8.31;100.00
18985;BME280;9626;52.552;13.436;2024-01-25T11:06:07;101602.22;;;8.36;100.00
18985;BME280;9626;52.552;13.436;2024-01-25T11:08:35;101597.78;;;8.33;100.00
18985;BME280;9626;52.552;13.436;2024-01-25T11:11:08;101591.66;;;8.40;100.00
18985;BME280;9626;52.552;13.436;2024-01-25T11:13:35;101585.47;;;8.32;100.00
18985;BME280;9626;52.552;13.436;2024-01-25T11:16:14;101596.03;;;8.32;100.00
18985;BME280;9626;52.552;13.436;2024-01-25T11:18:51;101591.66;;;8.39;100.00
18985;BME280;9626;52.552;13.436;2024-01-25T11:21:28;101603.09;;;8.42;100.00
18985;BME280;9626;52.552;13.436;2024-01-25T11:24:02;101589.16;;;8.80;100.00
18985;BME280;9626;52.552;13.436;2024-01-25T11:26:33;101590.91;;;8.66;100.00
18985;BME280;9626;52.552;13.436;2024-01-25T11:28:59;101596.94;;;8.42;100.00
18985;BME280;9626;52.552;13.436;2024-01-25T11:31:27;101603.19;;;8.58;100.00
18985;BME280;9626;52.552;13.436;2024-01-25T11:34:00;101604.06;;;8.60;100.00
18985;BME280;9626;52.552;13.436;2024-01-25T11:36:27;101603.19;;;8.61;100.00
18985;BME280;9626;52.552;13.436;2024-01-25T11:38:53;101608.47;;;8.62;100.00
18985;BME280;9626;52.552;13.436;2024-01-25T11:41:20;101601.47;;;8.66;100.00
18985;BME280;9626;52.552;13.436;2024-01-25T11:43:49;101601.50;;;8.91;100.00
18985;BME280;9626;52.552;13.436;2024-01-25T11:46:15;101619.94;;;8.69;100.00
18985;BME280;9626;52.552;13.436;2024-01-25T11:48:42;101606.81;;;9.00;100.00
18985;BME280;9626;52.552;13.436;2024-01-25T11:51:09;101606.81;;;8.99;99.85
18985;BME280;9626;52.552;13.436;2024-01-25T11:53:37;101616.50;;;9.03;98.62
18985;BME280;9626;52.552;13.436;2024-01-25T11:56:13;101614.72;;;8.86;98.61
18985;BME280;9626;52.552;13.436;2024-01-25T11:58:43;101614.66;;;8.72;98.39
18985;BME280;9626;52.552;13.436;2024-01-25T12:01:13;101627.88;;;8.85;97.72
18985;BME280;9626;52.552;13.436;2024-01-25T12:03:41;101627.88;;;8.72;98.20
18985;BME280;9626;52.552;13.436;2024-01-25T12:06:08;101626.16;;;8.91;97.16
18985;BME280;9626;52.552;13.436;2024-01-25T12:08:35;101640.22;;;8.79;97.12
18985;BME280;9626;52.552;13.436;2024-01-25T12:11:06;101636.69;;;8.77;97.48
18985;BME280;9626;52.552;13.436;2024-01-25T12:13:35;101626.13;;;8.74;97.74
18985;BME280;9626;52.552;13.436;2024-01-25T12:16:03;101630.59;;;9.05;96.67
18985;BME280;9626;52.552;13.436;2024-01-25T12:18:30;101635.00;;;9.32;94.72
18985;BME280;9626;52.552;13.436;2024-01-25T12:21:03;101621.81;;;9.24;94.35
18985;BME280;9626;52.552;13.436;2024-01-25T12:23:40;101626.19;;;9.22;94.74
18985;BME280;9626;52.552;13.436;2024-01-25T12:26:08;101620.94;;;9.18;94.10
18985;BME280;9626;52.552;13.436;2024-01-25T12:28:35;101638.44;;;10.22;85.33
18985;BME280;9626;52.552;13.436;2024-01-25T12:31:02;101638.56;;;9.56;89.82
18985;BME280;9626;52.552;13.436;2024-01-25T12:33:29;101654.09;;;10.87;81.96
18985;BME280;9626;52.552;13.436;2024-01-25T12:35:55;101656.97;;;10.38;82.88
18985;BME280;9626;52.552;13.436;2024-01-25T12:38:25;101641.16;;;10.02;86.42
18985;BME280;9626;52.552;13.436;2024-01-25T12:40:52;101639.41;;;9.78;88.07
18985;BME280;9626;52.552;13.436;2024-01-25T12:43:19;101631.47;;;9.78;88.64
18985;BME280;9626;52.552;13.436;2024-01-25T12:45:47;101641.19;;;9.70;89.86
18985;BME280;9626;52.552;13.436;2024-01-25T12:48:15;101628.88;;;9.41;90.76